Sunday, May 3, 2015, 4:47 AM EDT

KEZF, Fredericksburg, Shannon Airport

Location: Fredericksburg, VA, United States Lat: 38.267
Local Time: 4:47 AM EDT ( 8:47 GMT) Lon: -77.45
Time Zone: US/Eastern Elev: 85 ft

Show me the last for .
Show Decoded

2015-05-03 04:35 METAR KEZF 030835Z AUTO 00000KT 10SM SCT100 10/10 A3006 RMK AO2 T00950095 =
2015-05-03 04:15 METAR KEZF 030815Z AUTO 00000KT 10SM SCT100 09/09 A3006 RMK AO2 T00940094 =
2015-05-03 03:55 METAR KEZF 030755Z AUTO 00000KT 10SM SCT100 10/10 A3005 RMK AO2 T00950095 =
2015-05-03 03:35 METAR KEZF 030735Z AUTO 00000KT 10SM CLR 10/10 A3005 RMK AO2 T01000100 =
2015-05-03 02:55 METAR KEZF 030655Z AUTO 00000KT 10SM CLR 10/10 A3004 RMK AO2 T00970097 =
2015-05-03 02:35 METAR KEZF 030635Z AUTO 00000KT 10SM CLR 10/10 A3004 RMK AO2 T01030103 =
2015-05-03 02:15 METAR KEZF 030615Z AUTO 00000KT 10SM CLR 10/10 A3004 RMK AO2 T01040102 =
2015-05-03 01:55 METAR KEZF 030555Z AUTO 00000KT 10SM CLR 11/11 A3004 RMK AO2 T01100109 10192
                 20102 402480095 =
2015-05-03 01:35 METAR KEZF 030535Z AUTO 00000KT 10SM CLR 11/10 A3004 RMK AO2 T01080101 =
2015-05-03 01:15 METAR KEZF 030515Z AUTO 00000KT 10SM CLR 11/09 A3005 RMK AO2 T01050093 =
2015-05-03 00:35 METAR KEZF 030435Z AUTO 00000KT 10SM CLR 12/10 A3004 RMK AO2 T01170098 =
2015-05-03 00:15 METAR KEZF 030415Z AUTO 00000KT 10SM CLR 12/09 A3004 RMK AO2 T01200094 =
2015-05-02 23:55 METAR KEZF 030355Z AUTO 00000KT 10SM CLR 13/10 A3004 RMK AO2 T01260095 =
2015-05-02 23:35 METAR KEZF 030335Z AUTO 00000KT 10SM CLR 13/09 A3004 RMK AO2 T01250093 =
2015-05-02 23:15 METAR KEZF 030315Z AUTO 00000KT 10SM CLR 13/09 A3004 RMK AO2 T01300093 =
2015-05-02 22:55 METAR KEZF 030255Z AUTO 00000KT 10SM CLR 14/10 A3004 RMK AO2 T01360095 =
2015-05-02 22:35 METAR KEZF 030235Z AUTO 00000KT 10SM CLR 14/10 A3004 RMK AO2 T01360095 =
2015-05-02 22:15 METAR KEZF 030215Z AUTO 25003KT 10SM SCT100 14/10 A3004 RMK AO2 T01400096 =
2015-05-02 21:55 METAR KEZF 030155Z AUTO 00000KT 10SM SCT100 15/09 A3003 RMK AO2 T01450092 =
2015-05-02 21:35 METAR KEZF 030135Z AUTO 00000KT 10SM CLR 15/09 A3002 RMK AO2 T01500093 =
2015-05-02 21:15 METAR KEZF 030115Z AUTO 00000KT 10SM CLR 16/09 A3001 RMK AO2 T01580093 =
2015-05-02 20:35 METAR KEZF 030035Z AUTO 00000KT 10SM CLR 17/09 A3000 RMK AO2 T01740092 =
2015-05-02 20:15 METAR KEZF 030015Z AUTO 00000KT 10SM CLR 19/09 A3000 RMK AO2 T01880089 =
2015-05-02 19:55 METAR KEZF 022355Z AUTO 00000KT 10SM CLR 20/11 A2999 RMK AO2 T01960107 10248
                 20196 =
2015-05-02 19:35 METAR KEZF 022335Z AUTO 31003KT 10SM SCT100 23/06 A2999 RMK AO2 T02250060 =
2015-05-02 19:15 METAR KEZF 022315Z AUTO 31004KT 10SM BKN100 23/06 A2999 RMK AO2 T02340061 =
2015-05-02 18:55 METAR KEZF 022255Z AUTO 32003KT 10SM BKN100 23/06 A2999 RMK AO2 T02310063 =
2015-05-02 18:35 METAR KEZF 022235Z AUTO 33007KT 10SM SCT100 23/05 A2998 RMK AO2 T02300052 =
2015-05-02 18:15 METAR KEZF 022215Z AUTO 32006G14KT 10SM BKN100 25/04 A2998 RMK AO2 T02460043 =
2015-05-02 17:55 METAR KEZF 022155Z AUTO 32005KT 10SM BKN090 25/05 A2998 RMK AO2 T02450046 =
2015-05-02 17:35 METAR KEZF 022135Z AUTO 24003KT 10SM BKN090 24/06 A2998 RMK AO2 T02400064 =
2015-05-02 17:15 METAR KEZF 022115Z AUTO 00000KT 10SM SCT100 24/06 A2998 RMK AO2 T02370064 =
2015-05-02 16:55 METAR KEZF 022055Z AUTO 02003KT 10SM SCT100 24/07 A2998 RMK AO2 T02400067 =
2015-05-02 16:35 METAR KEZF 022035Z AUTO 00000KT 10SM BKN100 23/06 A2998 RMK AO2 T02290058 =
2015-05-02 16:15 METAR KEZF 022015Z AUTO 02005KT 10SM BKN100 23/07 A2998 RMK AO2 T02290066 =
2015-05-02 15:55 METAR KEZF 021955Z AUTO 35003KT 10SM BKN100 23/07 A2999 RMK AO2 T02320068 =
2015-05-02 15:35 METAR KEZF 021935Z AUTO 00000KT 10SM SCT080 BKN090 23/07 A2999 RMK AO2 T02290072
                 =
2015-05-02 15:15 METAR KEZF 021915Z AUTO 00000KT 10SM SCT080 BKN090 23/07 A3000 RMK AO2 T02280069
                 =
2015-05-02 14:55 METAR KEZF 021855Z AUTO 05003KT 10SM SCT080 SCT100 23/08 A3000 RMK AO2 T02310076
                 =
2015-05-02 14:35 METAR KEZF 021835Z AUTO 00000KT 10SM SCT070 SCT090 23/07 A3000 RMK AO2 T02280069
                 =
2015-05-02 14:15 METAR KEZF 021815Z AUTO 06003KT 10SM SCT070 BKN090 22/08 A3001 RMK AO2 T02240079
                 =
2015-05-02 13:55 METAR KEZF 021755Z AUTO 07005KT 10SM SCT060 SCT070 SCT090 23/07 A3001 RMK AO2
                 T02250072 10228 20112 =
2015-05-02 13:35 METAR KEZF 021735Z AUTO 05005KT 10SM SCT060 BKN070 BKN090 22/08 A3001 RMK AO2
                 T02180084 =
2015-05-02 13:15 METAR KEZF 021715Z AUTO 04004KT 10SM SCT060 SCT070 BKN090 22/09 A3001 RMK AO2
                 T02150089 =
2015-05-02 12:55 METAR KEZF 021655Z AUTO 06006KT 10SM SCT060 SCT100 21/09 A3001 RMK AO2 T02140089
                 =
2015-05-02 12:35 METAR KEZF 021635Z AUTO 00000KT 10SM SCT060 BKN100 21/09 A3002 RMK AO2 T02070093
                 =
2015-05-02 12:15 METAR KEZF 021615Z AUTO 04006KT 10SM SCT060 SCT070 BKN100 21/09 A3002 RMK AO2
                 T02070091 =
2015-05-02 11:55 METAR KEZF 021555Z AUTO 03006KT 10SM SCT060 BKN070 21/09 A3003 RMK AO2 T02060091
                 =
2015-05-02 11:35 METAR KEZF 021535Z AUTO 35005KT 10SM SCT045 SCT050 21/10 A3002 RMK AO2 T02120103
                 =
2015-05-02 11:15 METAR KEZF 021515Z AUTO 04005KT 10SM CLR 20/11 A3002 RMK AO2 T02020106 =
2015-05-02 10:55 METAR KEZF 021455Z AUTO 02005KT 10SM CLR 20/11 A3003 RMK AO2 T01970110 =
2015-05-02 10:35 METAR KEZF 021435Z AUTO 01006KT 10SM CLR 19/11 A3003 RMK AO2 T01890108 =
2015-05-02 10:15 METAR KEZF 021415Z AUTO 01005KT 10SM CLR 18/11 A3002 RMK AO2 T01770110 =
2015-05-02 09:55 METAR KEZF 021355Z AUTO 35003KT 10SM CLR 17/11 A3002 RMK AO2 T01680110 =
2015-05-02 09:35 METAR KEZF 021335Z AUTO 00000KT 10SM SCT110 15/11 A3002 RMK AO2 T01530110 =
2015-05-02 09:15 METAR KEZF 021315Z AUTO 00000KT 10SM SCT110 14/11 A3002 RMK AO2 T01390111 =
2015-05-02 08:55 METAR KEZF 021255Z AUTO 00000KT 10SM SCT075 SCT110 13/11 A3002 RMK AO2 T01280110
                 =
2015-05-02 08:35 METAR KEZF 021235Z AUTO 00000KT 10SM BKN075 BKN110 13/11 A3002 RMK AO2 T01250108
                 =
2015-05-02 08:15 METAR KEZF 021215Z AUTO 00000KT 10SM BKN075 OVC110 12/10 A3002 RMK AO2 T01150104
                 =
2015-05-02 07:55 METAR KEZF 021155Z AUTO 00000KT 10SM OVC110 11/11 A3001 RMK AO2 70003 T01120105
                 10112 20095 =
2015-05-02 07:35 METAR KEZF 021135Z AUTO 00000KT 10SM OVC110 11/11 A3001 RMK AO2 T01060105 =
2015-05-02 07:15 METAR KEZF 021115Z AUTO 00000KT 10SM OVC110 11/10 A3001 RMK AO2 T01050102 =
2015-05-02 06:55 METAR KEZF 021055Z AUTO 00000KT 10SM OVC110 10/10 A3000 RMK AO2 T01010101 =
2015-05-02 06:35 METAR KEZF 021035Z AUTO 00000KT 10SM OVC110 10/10 A3000 RMK AO2 T01000100 =
2015-05-02 06:15 METAR KEZF 021015Z AUTO 00000KT 10SM OVC110 10/10 A2999 RMK AO2 T01000100 =
2015-05-02 05:55 METAR KEZF 020955Z AUTO 00000KT 10SM OVC110 10/10 A2999 RMK AO2 T01000100 =
2015-05-02 05:35 METAR KEZF 020935Z AUTO 00000KT 10SM OVC110 10/10 A2998 RMK AO2 T00990099 =
2015-05-02 05:15 METAR KEZF 020915Z AUTO 00000KT 10SM OVC110 10/10 A2998 RMK AO2 T00970097 =
2015-05-02 04:55 METAR KEZF 020855Z AUTO 00000KT 10SM SCT085 OVC120 10/10 A2997 RMK AO2 T00970097
                 =

Support USWX by starting your Amazon purchase here.